createdAt,value
2023-01-20T00:01:48.956Z,17.20
2023-01-20T00:04:21.192Z,17.20
2023-01-20T00:06:50.392Z,17.20
2023-01-20T00:09:20.169Z,17.20
2023-01-20T00:11:49.182Z,17.30
2023-01-20T00:14:18.378Z,17.30
2023-01-20T00:16:47.345Z,17.40
2023-01-20T00:19:16.689Z,17.40
2023-01-20T00:21:45.891Z,17.40
2023-01-20T00:24:14.837Z,17.50
2023-01-20T00:26:43.864Z,17.50
2023-01-20T00:29:13.080Z,17.60
2023-01-20T00:31:42.217Z,17.60
2023-01-20T00:34:12.708Z,17.70
2023-01-20T00:36:41.641Z,17.80
2023-01-20T00:39:10.577Z,17.90
2023-01-20T00:41:39.526Z,18.00
2023-01-20T00:44:08.641Z,18.10
2023-01-20T00:46:37.583Z,18.20
2023-01-20T00:49:06.535Z,18.30
2023-01-20T00:51:35.437Z,18.40
2023-01-20T00:54:04.383Z,18.60
2023-01-20T00:56:33.275Z,18.70
2023-01-20T00:59:02.161Z,18.80
2023-01-20T01:01:31.128Z,18.90
2023-01-20T01:04:00.047Z,19.00
2023-01-20T01:06:29.010Z,19.10
2023-01-20T01:08:58.281Z,19.20
2023-01-20T01:11:27.263Z,19.30
2023-01-20T01:13:58.060Z,19.50
2023-01-20T01:16:27.059Z,19.50
2023-01-20T01:18:57.015Z,19.60
2023-01-20T01:21:25.969Z,19.80
2023-01-20T01:23:55.802Z,19.90
2023-01-20T01:26:24.791Z,20.00
2023-01-20T01:28:54.533Z,20.20
2023-01-20T01:31:23.507Z,20.30
2023-01-20T01:33:52.455Z,20.40
2023-01-20T01:36:21.467Z,20.50
2023-01-20T01:38:57.681Z,20.60
2023-01-20T01:41:28.477Z,20.70
2023-01-20T01:44:11.084Z,20.80
2023-01-20T01:46:41.499Z,20.90
2023-01-20T01:49:20.755Z,21.00
2023-01-20T01:52:02.976Z,21.10
2023-01-20T01:54:46.695Z,21.30
2023-01-20T01:57:15.757Z,21.40
2023-01-20T01:59:46.273Z,21.50
2023-01-20T02:02:15.348Z,21.60
2023-01-20T02:04:46.063Z,21.80
2023-01-20T02:07:18.855Z,22.00
2023-01-20T02:09:47.839Z,22.10
2023-01-20T02:12:20.358Z,22.30
2023-01-20T02:14:56.365Z,22.40
2023-01-20T02:17:31.036Z,22.50
2023-01-20T02:20:21.568Z,22.60
2023-01-20T02:23:09.228Z,22.70
2023-01-20T02:26:17.863Z,22.90
2023-01-20T02:29:20.119Z,23.10
2023-01-20T02:32:12.762Z,23.30
2023-01-20T02:35:20.465Z,23.30
2023-01-20T02:38:03.024Z,23.50
2023-01-20T02:41:22.454Z,23.60
2023-01-20T02:44:19.688Z,23.70
2023-01-20T02:47:05.448Z,23.80
2023-01-20T02:49:48.174Z,23.80
2023-01-20T02:52:22.662Z,23.90
2023-01-20T02:54:57.142Z,24.10
2023-01-20T02:57:55.111Z,24.20
2023-01-20T03:00:34.261Z,24.20
2023-01-20T03:03:07.791Z,24.30
2023-01-20T03:05:41.601Z,24.30
2023-01-20T03:08:14.832Z,24.40
2023-01-20T03:10:46.801Z,24.50
2023-01-20T03:13:37.704Z,24.60
2023-01-20T03:16:18.517Z,24.60
2023-01-20T03:18:48.064Z,24.70
2023-01-20T03:21:17.094Z,24.80
2023-01-20T03:23:51.139Z,25.00
2023-01-20T03:26:20.733Z,25.10
2023-01-20T03:28:50.714Z,25.30
2023-01-20T03:31:34.370Z,25.40
2023-01-20T03:34:06.801Z,25.60
2023-01-20T03:36:36.408Z,25.80
2023-01-20T03:39:06.700Z,25.90
2023-01-20T03:41:43.581Z,25.90
2023-01-20T03:44:33.502Z,25.80
2023-01-20T03:47:40.922Z,25.80
2023-01-20T03:50:18.278Z,25.70
2023-01-20T03:52:53.008Z,25.70
2023-01-20T03:55:43.705Z,25.70
2023-01-20T03:58:19.370Z,25.80
2023-01-20T04:00:51.428Z,25.90
2023-01-20T04:03:32.541Z,26.10
2023-01-20T04:06:05.387Z,26.10
2023-01-20T04:08:38.987Z,26.10
2023-01-20T04:11:09.663Z,26.10
2023-01-20T04:13:38.939Z,26.10
2023-01-20T04:16:14.926Z,26.20
2023-01-20T04:18:46.908Z,26.40
2023-01-20T04:21:21.985Z,26.50
2023-01-20T04:24:06.344Z,26.50
2023-01-20T04:26:35.337Z,26.50
2023-01-20T04:29:12.656Z,26.60
2023-01-20T04:31:42.129Z,26.70
2023-01-20T04:34:26.406Z,26.70
2023-01-20T04:36:55.445Z,26.80
2023-01-20T04:39:24.394Z,26.80
2023-01-20T04:41:56.154Z,27.00
2023-01-20T04:44:25.040Z,27.10
2023-01-20T04:47:00.860Z,27.20
2023-01-20T04:49:29.930Z,27.20
2023-01-20T04:51:58.808Z,27.20
2023-01-20T04:54:27.724Z,27.20
2023-01-20T04:56:56.661Z,27.10
2023-01-20T04:59:25.693Z,27.10
2023-01-20T05:01:54.791Z,27.10
2023-01-20T05:04:24.043Z,27.10
2023-01-20T05:06:52.931Z,27.20
2023-01-20T05:09:21.941Z,27.20
2023-01-20T05:11:51.207Z,27.20
2023-01-20T05:14:20.114Z,27.20
2023-01-20T05:16:49.045Z,27.20
2023-01-20T05:19:17.925Z,27.30
2023-01-20T05:21:46.927Z,27.30
2023-01-20T05:24:15.848Z,27.40
2023-01-20T05:26:44.754Z,27.40
2023-01-20T05:29:13.675Z,27.40
2023-01-20T05:31:44.346Z,27.40
2023-01-20T05:34:13.458Z,27.40
2023-01-20T05:36:42.355Z,27.40
2023-01-20T05:39:11.281Z,27.30
2023-01-20T05:41:40.164Z,27.20
2023-01-20T05:44:10.126Z,27.20
2023-01-20T05:46:39.066Z,27.30
2023-01-20T05:49:08.185Z,27.20
2023-01-20T05:51:37.037Z,27.20
2023-01-20T05:54:06.106Z,27.20
2023-01-20T05:56:35.234Z,27.30
2023-01-20T05:59:04.088Z,27.30
2023-01-20T06:01:33.083Z,27.30
2023-01-20T06:04:02.016Z,27.40
2023-01-20T06:06:30.919Z,27.50
2023-01-20T06:08:59.977Z,27.50
2023-01-20T06:11:28.934Z,27.60
2023-01-20T06:13:57.796Z,27.60
2023-01-20T06:16:26.743Z,27.70
2023-01-20T06:18:55.867Z,27.70
2023-01-20T06:21:25.962Z,27.60
2023-01-20T06:23:55.589Z,27.50
2023-01-20T06:26:24.545Z,27.40
2023-01-20T06:28:53.424Z,27.40
2023-01-20T06:31:22.518Z,27.50
2023-01-20T06:33:54.244Z,27.60
2023-01-20T06:36:23.360Z,27.70
2023-01-20T06:38:54.039Z,27.80
2023-01-20T06:41:22.941Z,27.80
2023-01-20T06:43:53.228Z,27.90
2023-01-20T06:46:23.473Z,27.90
2023-01-20T06:48:52.919Z,28.10
2023-01-20T06:51:22.543Z,28.20
2023-01-20T06:53:51.459Z,28.20
2023-01-20T06:56:20.411Z,28.20
2023-01-20T06:58:49.623Z,28.30
2023-01-20T07:01:25.640Z,28.40
2023-01-20T07:03:54.804Z,28.50
2023-01-20T07:06:40.548Z,28.60
2023-01-20T07:09:12.527Z,28.70
2023-01-20T07:11:41.854Z,28.80
2023-01-20T07:14:11.364Z,28.90
2023-01-20T07:16:40.476Z,29.10
2023-01-20T07:19:09.493Z,29.20
2023-01-20T07:21:38.522Z,29.30
2023-01-20T07:24:07.931Z,29.30
2023-01-20T07:26:37.504Z,29.30
2023-01-20T07:29:06.472Z,29.30
2023-01-20T07:31:35.480Z,29.40
2023-01-20T07:34:04.570Z,29.50
2023-01-20T07:36:33.553Z,29.50
2023-01-20T07:39:02.437Z,29.50
2023-01-20T07:41:31.430Z,29.60
2023-01-20T07:44:00.333Z,29.50
2023-01-20T07:46:29.265Z,29.30
2023-01-20T07:48:58.542Z,29.10
2023-01-20T07:51:27.462Z,29.10
2023-01-20T07:53:56.373Z,29.10
2023-01-20T07:56:30.726Z,29.20
2023-01-20T07:58:59.846Z,29.40
2023-01-20T08:01:34.053Z,29.50
2023-01-20T08:04:03.194Z,29.70
2023-01-20T08:06:32.616Z,29.70
2023-01-20T08:09:04.990Z,29.90
2023-01-20T08:11:33.948Z,29.90
2023-01-20T08:14:02.979Z,30.00
2023-01-20T08:16:31.929Z,30.00
2023-01-20T08:19:04.105Z,30.10
2023-01-20T08:21:34.019Z,30.10
2023-01-20T08:24:06.660Z,30.10
2023-01-20T08:26:36.119Z,30.20
2023-01-20T08:29:12.793Z,30.10
2023-01-20T08:31:42.449Z,29.90
2023-01-20T08:34:11.735Z,29.80
2023-01-20T08:36:42.805Z,29.70
2023-01-20T08:39:15.409Z,29.60
2023-01-20T08:41:45.521Z,29.60
2023-01-20T08:44:15.220Z,29.60
2023-01-20T08:46:45.530Z,29.60
2023-01-20T08:49:18.055Z,29.60
2023-01-20T08:51:50.497Z,29.60
2023-01-20T08:54:20.411Z,29.60
2023-01-20T08:56:52.317Z,29.60
2023-01-20T08:59:22.267Z,29.60
2023-01-20T09:01:51.190Z,29.60
2023-01-20T09:04:20.166Z,29.50
2023-01-20T09:06:51.412Z,29.30
2023-01-20T09:09:22.874Z,29.20
2023-01-20T09:11:54.752Z,29.10
2023-01-20T09:14:25.487Z,29.00
2023-01-20T09:16:54.843Z,29.10
2023-01-20T09:19:23.839Z,29.10
2023-01-20T09:21:52.727Z,29.10
2023-01-20T09:24:21.841Z,29.20
2023-01-20T09:26:51.854Z,29.20
2023-01-20T09:29:21.985Z,29.20
2023-01-20T09:31:59.328Z,29.20
2023-01-20T09:34:30.446Z,29.10
2023-01-20T09:37:20.065Z,29.10
2023-01-20T09:40:08.136Z,29.00
2023-01-20T09:43:15.314Z,28.90
2023-01-20T09:45:51.904Z,28.80
2023-01-20T09:49:35.612Z,28.80
2023-01-20T09:52:41.300Z,28.70
2023-01-20T09:55:33.048Z,28.60
2023-01-20T09:58:29.821Z,28.50
2023-01-20T10:01:19.160Z,28.40
2023-01-20T10:04:04.849Z,28.30
2023-01-20T10:06:46.025Z,28.20
2023-01-20T10:09:33.824Z,28.10
2023-01-20T10:12:21.189Z,28.00
2023-01-20T10:15:21.930Z,27.90
2023-01-20T10:18:10.354Z,27.80
2023-01-20T10:20:57.723Z,27.70
2023-01-20T10:23:38.953Z,27.60
2023-01-20T10:26:33.585Z,27.50
2023-01-20T10:29:09.295Z,27.50
2023-01-20T10:31:50.054Z,27.40
2023-01-20T10:34:23.678Z,27.30
2023-01-20T10:37:07.472Z,27.20
2023-01-20T10:39:46.093Z,27.20
2023-01-20T10:42:18.186Z,27.10
2023-01-20T10:44:51.328Z,27.00
2023-01-20T10:47:45.123Z,26.90
2023-01-20T10:50:22.203Z,26.80
2023-01-20T10:53:28.024Z,26.70
2023-01-20T10:56:25.382Z,26.70
2023-01-20T10:58:54.410Z,26.60
2023-01-20T11:01:23.517Z,26.50
2023-01-20T11:03:52.654Z,26.40
2023-01-20T11:06:24.495Z,26.40
2023-01-20T11:08:53.802Z,26.30
2023-01-20T11:11:24.858Z,26.20
2023-01-20T11:13:54.992Z,26.10
2023-01-20T11:16:32.468Z,26.00
2023-01-20T11:19:07.317Z,26.00
2023-01-20T11:21:38.168Z,25.90
2023-01-20T11:24:46.496Z,25.80
2023-01-20T11:27:22.395Z,25.70
2023-01-20T11:30:04.381Z,25.70
2023-01-20T11:32:36.534Z,25.60
2023-01-20T11:35:21.076Z,25.50
2023-01-20T11:37:50.097Z,25.50
2023-01-20T11:40:27.954Z,25.40
2023-01-20T11:42:57.279Z,25.30
2023-01-20T11:45:35.682Z,25.30
2023-01-20T11:48:19.169Z,25.20
2023-01-20T11:51:02.331Z,25.10
2023-01-20T11:53:35.387Z,25.10
2023-01-20T11:56:27.427Z,25.00
2023-01-20T11:59:04.842Z,24.90
2023-01-20T12:02:02.636Z,24.90
2023-01-20T12:04:54.061Z,24.80
2023-01-20T12:07:32.397Z,24.80
2023-01-20T12:10:19.194Z,24.70
2023-01-20T12:12:59.105Z,24.60
2023-01-20T12:15:32.862Z,24.60
2023-01-20T12:18:45.399Z,24.50
2023-01-20T12:21:25.620Z,24.40
2023-01-20T12:24:14.286Z,24.30
2023-01-20T12:26:43.243Z,24.30
2023-01-20T12:29:36.723Z,24.20
2023-01-20T12:32:05.911Z,24.20
2023-01-20T12:34:35.890Z,24.10
2023-01-20T12:37:33.646Z,24.10
2023-01-20T12:40:33.969Z,24.10
2023-01-20T12:43:02.899Z,24.00
2023-01-20T12:45:39.879Z,23.90
2023-01-20T12:48:34.131Z,23.90
2023-01-20T12:51:33.686Z,23.80
2023-01-20T12:54:12.357Z,23.80
2023-01-20T12:57:10.159Z,23.80
2023-01-20T12:59:42.186Z,23.70
2023-01-20T13:02:45.118Z,23.60
2023-01-20T13:05:29.068Z,23.60
2023-01-20T13:08:12.838Z,23.50
2023-01-20T13:11:05.260Z,23.50
2023-01-20T13:13:57.532Z,23.50
2023-01-20T13:19:49.099Z,23.40
2023-01-20T13:22:25.580Z,23.30
2023-01-20T13:24:57.062Z,23.20
2023-01-20T13:27:34.700Z,23.20
2023-01-20T13:30:06.197Z,23.10
2023-01-20T13:32:49.940Z,23.10
2023-01-20T13:35:42.916Z,23.00
2023-01-20T13:38:34.206Z,23.00
2023-01-20T13:41:06.778Z,22.90
2023-01-20T13:43:49.227Z,22.90
2023-01-20T13:46:21.232Z,22.90
2023-01-20T13:49:25.572Z,22.90
2023-01-20T13:51:54.526Z,22.80
2023-01-20T13:54:35.288Z,22.80
2023-01-20T13:57:37.133Z,22.80
2023-01-20T14:00:14.221Z,22.80
2023-01-20T14:02:43.311Z,22.80
2023-01-20T14:05:33.207Z,22.70
2023-01-20T14:08:02.283Z,22.70
2023-01-20T14:10:31.464Z,22.70
2023-01-20T14:13:00.384Z,22.70
2023-01-20T14:15:37.126Z,22.70
2023-01-20T14:18:12.967Z,22.70
2023-01-20T14:20:46.493Z,22.70
2023-01-20T14:23:37.087Z,22.60
2023-01-20T14:26:26.459Z,22.60
2023-01-20T14:28:57.936Z,22.60
2023-01-20T14:31:37.579Z,22.50
2023-01-20T14:34:29.753Z,22.50
2023-01-20T14:37:05.025Z,22.40
2023-01-20T14:39:34.449Z,22.40
2023-01-20T14:42:03.711Z,22.40
2023-01-20T14:44:36.700Z,22.30
2023-01-20T14:47:05.898Z,22.30
2023-01-20T14:49:42.978Z,22.30
2023-01-20T14:52:22.844Z,22.20
2023-01-20T14:54:52.028Z,22.20
2023-01-20T14:57:44.507Z,22.20
2023-01-20T15:00:24.283Z,22.20
2023-01-20T15:03:11.513Z,22.10
2023-01-20T15:05:59.427Z,22.10
2023-01-20T15:08:30.089Z,22.10
2023-01-20T15:11:20.171Z,22.10
2023-01-20T15:13:55.083Z,22.10
2023-01-20T15:16:54.696Z,22.00
2023-01-20T15:19:34.331Z,22.00
2023-01-20T15:22:22.218Z,22.00
2023-01-20T15:24:52.257Z,21.90
2023-01-20T15:27:25.679Z,21.90
2023-01-20T15:30:21.371Z,21.90
2023-01-20T15:32:51.170Z,21.90
2023-01-20T15:35:23.912Z,21.90
2023-01-20T15:37:53.951Z,21.90
2023-01-20T15:40:26.273Z,21.80
2023-01-20T15:42:56.015Z,21.80
2023-01-20T15:45:26.611Z,21.80
2023-01-20T15:47:55.718Z,21.70
2023-01-20T15:50:27.744Z,21.70
2023-01-20T15:52:56.778Z,21.70
2023-01-20T15:55:25.917Z,21.60
2023-01-20T15:57:54.987Z,21.60
2023-01-20T16:00:25.551Z,21.50
2023-01-20T16:02:54.647Z,21.50
2023-01-20T16:05:23.845Z,21.50
2023-01-20T16:07:52.833Z,21.40
2023-01-20T16:10:21.991Z,21.40
2023-01-20T16:12:50.952Z,21.40
2023-01-20T16:15:20.269Z,21.40
2023-01-20T16:17:49.281Z,21.30
2023-01-20T16:20:24.108Z,21.30
2023-01-20T16:22:53.251Z,21.30
2023-01-20T16:25:22.958Z,21.30
2023-01-20T16:27:52.119Z,21.20
2023-01-20T16:30:22.850Z,21.20
2023-01-20T16:32:52.287Z,21.20
2023-01-20T16:35:24.637Z,21.20
2023-01-20T16:37:53.980Z,21.20
2023-01-20T16:40:25.923Z,21.10
2023-01-20T16:42:57.105Z,21.10
2023-01-20T16:45:30.743Z,21.10
2023-01-20T16:47:59.765Z,21.10
2023-01-20T16:50:29.428Z,21.10
2023-01-20T16:52:58.637Z,21.00
2023-01-20T16:55:27.723Z,21.00
2023-01-20T16:57:56.766Z,21.00
2023-01-20T17:00:26.164Z,21.00
2023-01-20T17:02:55.630Z,21.00
2023-01-20T17:05:26.538Z,20.90
2023-01-20T17:07:58.425Z,20.90
2023-01-20T17:10:30.732Z,20.90
2023-01-20T17:12:59.846Z,20.90
2023-01-20T17:15:29.392Z,20.80
2023-01-20T17:17:59.447Z,20.80
2023-01-20T17:20:32.040Z,20.70
2023-01-20T17:23:01.080Z,20.70
2023-01-20T17:25:30.053Z,20.70
2023-01-20T17:27:59.041Z,20.60
2023-01-20T17:30:28.107Z,20.60
2023-01-20T17:32:57.255Z,20.50
2023-01-20T17:35:26.139Z,20.50
2023-01-20T17:37:55.070Z,20.50
2023-01-20T17:40:24.096Z,20.40
2023-01-20T17:42:56.304Z,20.40
2023-01-20T17:45:25.349Z,20.30
2023-01-20T17:47:54.263Z,20.30
2023-01-20T17:50:23.307Z,20.30
2023-01-20T17:52:52.867Z,20.20
2023-01-20T17:55:21.819Z,20.20
2023-01-20T17:57:52.823Z,20.10
2023-01-20T18:00:22.069Z,20.10
2023-01-20T18:02:51.626Z,20.10
2023-01-20T18:05:20.519Z,20.00
2023-01-20T18:07:51.431Z,19.90
2023-01-20T18:10:20.456Z,19.90
2023-01-20T18:12:50.519Z,19.90
2023-01-20T18:15:19.487Z,19.80
2023-01-20T18:17:48.482Z,19.80
2023-01-20T18:20:18.929Z,19.70
2023-01-20T18:22:51.732Z,19.70
2023-01-20T18:25:20.663Z,19.70
2023-01-20T18:27:49.617Z,19.70
2023-01-20T18:30:18.885Z,19.60
2023-01-20T18:32:47.888Z,19.60
2023-01-20T18:35:17.011Z,19.60
2023-01-20T18:37:45.951Z,19.50
2023-01-20T18:40:15.167Z,19.50
2023-01-20T18:42:46.056Z,19.50
2023-01-20T18:45:15.021Z,19.40
2023-01-20T18:47:44.027Z,19.40
2023-01-20T18:50:13.312Z,19.40
2023-01-20T18:52:42.269Z,19.40
2023-01-20T18:55:11.576Z,19.30
2023-01-20T18:57:40.549Z,19.30
2023-01-20T19:00:10.181Z,19.30
2023-01-20T19:02:39.156Z,19.20
2023-01-20T19:05:08.607Z,19.20
2023-01-20T19:07:37.567Z,19.20
2023-01-20T19:10:06.842Z,19.10
2023-01-20T19:12:35.788Z,19.10
2023-01-20T19:15:04.958Z,19.10
2023-01-20T19:17:34.138Z,19.00
2023-01-20T19:20:03.168Z,19.00
2023-01-20T19:22:32.143Z,19.00
2023-01-20T19:25:01.340Z,19.00
2023-01-20T19:27:30.261Z,18.90
2023-01-20T19:29:59.523Z,18.90
2023-01-20T19:32:28.785Z,18.90
2023-01-20T19:34:57.790Z,18.80
2023-01-20T19:37:26.952Z,18.80
2023-01-20T19:39:56.722Z,18.70
2023-01-20T19:42:25.928Z,18.70
2023-01-20T19:44:54.982Z,18.70
2023-01-20T19:47:24.081Z,18.60
2023-01-20T19:49:53.373Z,18.60
2023-01-20T19:52:22.279Z,18.60
2023-01-20T19:54:52.042Z,18.50
2023-01-20T19:57:21.132Z,18.50
2023-01-20T19:59:50.462Z,18.50
2023-01-20T20:02:19.478Z,18.40
2023-01-20T20:04:48.503Z,18.40
2023-01-20T20:07:17.400Z,18.40
2023-01-20T20:09:46.373Z,18.40
2023-01-20T20:12:15.354Z,18.30
2023-01-20T20:14:44.794Z,18.30
2023-01-20T20:17:14.380Z,18.30
2023-01-20T20:19:43.303Z,18.20
2023-01-20T20:22:12.227Z,18.20
2023-01-20T20:24:41.083Z,18.20
2023-01-20T20:27:10.057Z,18.20
2023-01-20T20:29:38.946Z,18.10
2023-01-20T20:32:08.040Z,18.10
2023-01-20T20:34:37.080Z,18.10
2023-01-20T20:37:06.051Z,18.10
2023-01-20T20:39:35.971Z,18.00
2023-01-20T20:42:04.942Z,18.00
2023-01-20T20:44:34.388Z,18.00
2023-01-20T20:47:03.307Z,18.00
2023-01-20T20:49:33.065Z,17.90
2023-01-20T20:52:02.047Z,17.90
2023-01-20T20:54:31.064Z,17.90
2023-01-20T20:57:00.033Z,17.80
2023-01-20T21:02:19.387Z,17.80
2023-01-20T21:04:48.272Z,17.80
2023-01-20T21:07:17.268Z,17.70
2023-01-20T21:09:46.962Z,17.70
2023-01-20T21:12:16.134Z,17.70
2023-01-20T21:14:45.604Z,17.70
2023-01-20T21:17:14.575Z,17.70
2023-01-20T21:19:43.468Z,17.60
2023-01-20T21:22:12.744Z,17.60
2023-01-20T21:24:41.692Z,17.60
2023-01-20T21:27:10.600Z,17.60
2023-01-20T21:29:39.717Z,17.60
2023-01-20T21:32:08.664Z,17.60
2023-01-20T21:34:37.679Z,17.60
2023-01-20T21:37:06.745Z,17.60
2023-01-20T21:39:35.908Z,17.50
2023-01-20T21:42:07.113Z,17.50
2023-01-20T21:44:37.436Z,17.50
2023-01-20T21:47:11.805Z,17.50
2023-01-20T21:49:59.085Z,17.50
2023-01-20T21:52:43.020Z,17.50
2023-01-20T21:55:20.349Z,17.40
2023-01-20T21:57:51.292Z,17.50
2023-01-20T22:00:20.748Z,17.40
2023-01-20T22:02:50.171Z,17.40
2023-01-20T22:05:19.528Z,17.40
2023-01-20T22:07:49.558Z,17.40
2023-01-20T22:10:20.076Z,17.40
2023-01-20T22:12:49.244Z,17.30
2023-01-20T22:15:18.334Z,17.30
2023-01-20T22:17:47.311Z,17.30
2023-01-20T22:20:16.550Z,17.30
2023-01-20T22:22:45.845Z,17.20
2023-01-20T22:25:16.083Z,17.20
2023-01-20T22:27:44.960Z,17.20
2023-01-20T22:30:14.399Z,17.20
2023-01-20T22:32:43.638Z,17.20
2023-01-20T22:35:12.598Z,17.10
2023-01-20T22:37:41.497Z,17.10
2023-01-20T22:40:11.065Z,17.10
2023-01-20T22:42:39.932Z,17.10
2023-01-20T22:45:09.425Z,17.10
2023-01-20T22:47:38.325Z,17.10
2023-01-20T22:50:09.039Z,17.10
2023-01-20T22:52:38.107Z,17.00
2023-01-20T22:55:07.348Z,17.00
2023-01-20T22:57:36.293Z,17.00
2023-01-20T23:00:07.064Z,17.00
2023-01-20T23:02:38.116Z,16.90
2023-01-20T23:05:07.621Z,16.90
2023-01-20T23:07:39.730Z,16.90
2023-01-20T23:10:09.502Z,16.80
2023-01-20T23:12:38.427Z,16.80
2023-01-20T23:15:07.781Z,16.80
2023-01-20T23:17:36.760Z,16.80
2023-01-20T23:20:06.088Z,16.80
2023-01-20T23:22:35.241Z,16.70
2023-01-20T23:25:04.235Z,16.70
2023-01-20T23:27:33.769Z,16.70
2023-01-20T23:30:02.732Z,16.70
2023-01-20T23:32:31.675Z,16.70
2023-01-20T23:35:00.590Z,16.70
2023-01-20T23:37:29.653Z,16.70
2023-01-20T23:39:58.585Z,16.70
2023-01-20T23:42:27.441Z,16.70
2023-01-20T23:44:57.698Z,16.70
2023-01-20T23:47:26.702Z,16.60
2023-01-20T23:49:55.577Z,16.60
2023-01-20T23:52:27.032Z,16.60
2023-01-20T23:54:56.097Z,16.60
2023-01-20T23:57:25.646Z,16.60
2023-01-20T23:59:54.589Z,16.70
